Time;durP1;ratioP1;P1;durP2;ratioP2;P2;SDS_P1;SDS_P2;PMS_P1;PMS_P2;Temp;Humidity;BMP_temperature;BMP_pressure;BME280_temperature;BME280_humidity;BME280_pressure;Samples;Min_cycle;Max_cycle;Signal;HPM_P1;HPM_P2
2023/08/29 00:01:54;;;;;;;2.63;1.70;;;17.50;99.90;;;;;;7387973;19;20147;-79
2023/08/29 00:04:20;;;;;;;2.70;1.50;;;17.40;99.90;;;;;;7386089;19;20472;-79
2023/08/29 00:06:45;;;;;;;2.75;1.40;;;17.50;99.90;;;;;;7385192;19;20134;-78
2023/08/29 00:09:11;;;;;;;2.35;1.20;;;17.40;99.90;;;;;;7389019;19;20599;-78
2023/08/29 00:11:37;;;;;;;1.27;1.17;;;17.40;99.90;;;;;;7385474;19;20138;-78
2023/08/29 00:14:03;;;;;;;1.35;1.20;;;17.40;99.90;;;;;;7387089;19;20137;-79
2023/08/29 00:16:28;;;;;;;2.08;1.35;;;17.40;99.90;;;;;;7386610;19;20154;-78
2023/08/29 00:18:54;;;;;;;1.88;1.50;;;17.40;99.90;;;;;;7388865;19;20179;-78
2023/08/29 00:21:20;;;;;;;2.47;1.50;;;17.50;99.90;;;;;;7384211;19;20138;-78
2023/08/29 00:23:49;;;;;;;1.20;1.02;;;17.50;99.90;;;;;;7387820;19;20149;-78
2023/08/29 00:26:14;;;;;;;3.65;1.65;;;17.50;99.90;;;;;;7384185;19;20127;-78
2023/08/29 00:28:40;;;;;;;3.38;1.45;;;17.50;99.90;;;;;;7387602;19;20168;-78
2023/08/29 00:31:06;;;;;;;1.98;1.20;;;17.50;99.90;;;;;;7387014;19;20146;-79
2023/08/29 00:33:32;;;;;;;2.58;1.70;;;17.40;99.90;;;;;;7387394;19;20486;-79
2023/08/29 00:35:58;;;;;;;1.42;1.30;;;17.40;99.90;;;;;;7385178;19;20519;-77
2023/08/29 00:38:24;;;;;;;2.25;1.10;;;17.40;99.90;;;;;;7386411;19;20236;-78
2023/08/29 00:40:49;;;;;;;2.15;1.40;;;17.40;99.90;;;;;;7387721;19;20493;-76
2023/08/29 00:43:15;;;;;;;3.45;1.65;;;17.50;99.90;;;;;;7385011;19;20131;-77
2023/08/29 00:45:41;;;;;;;1.30;1.20;;;17.40;99.90;;;;;;7385636;19;20145;-77
2023/08/29 00:48:08;;;;;;;1.60;1.50;;;17.30;99.90;;;;;;7386183;19;20139;-78
2023/08/29 00:50:34;;;;;;;1.30;1.20;;;17.30;99.90;;;;;;7387708;19;20142;-78
2023/08/29 00:53:05;;;;;;;2.30;1.33;;;17.40;99.90;;;;;;7385579;19;20135;-78
2023/08/29 00:55:33;;;;;;;1.58;1.20;;;17.30;99.90;;;;;;7387313;19;20131;-78
2023/08/29 00:58:01;;;;;;;1.88;1.20;;;17.40;99.90;;;;;;7385984;19;20139;-78
2023/08/29 01:00:28;;;;;;;2.03;1.83;;;17.50;99.90;;;;;;7385563;19;20134;-78
2023/08/29 01:02:54;;;;;;;3.92;1.38;;;17.40;99.90;;;;;;7388524;19;20127;-79
2023/08/29 01:05:20;;;;;;;1.83;1.33;;;17.20;99.90;;;;;;7384675;19;20639;-78
2023/08/29 01:07:51;;;;;;;2.03;1.50;;;17.10;99.90;;;;;;7387097;19;20202;-79
2023/08/29 01:10:18;;;;;;;1.70;1.40;;;17.10;99.90;;;;;;7387359;19;20138;-78
2023/08/29 01:12:51;;;;;;;1.20;1.10;;;17.10;99.90;;;;;;7387139;19;20172;-78
2023/08/29 01:15:25;;;;;;;2.10;1.40;;;17.30;99.90;;;;;;7385729;19;20681;-77
2023/08/29 01:18:01;;;;;;;1.30;1.20;;;17.40;99.90;;;;;;7388151;19;20161;-78
2023/08/29 01:20:29;;;;;;;3.10;1.35;;;17.40;99.90;;;;;;7385231;19;20130;-77
2023/08/29 01:23:17;;;;;;;1.48;1.35;;;17.60;99.90;;;;;;7389945;19;20143;-79
2023/08/29 01:26:13;;;;;;;1.30;1.20;;;17.50;99.90;;;;;;7391114;19;20150;-78
2023/08/29 01:28:40;;;;;;;1.50;1.13;;;17.60;99.90;;;;;;7381045;19;20150;-78
2023/08/29 01:31:07;;;;;;;2.20;1.30;;;17.50;99.90;;;;;;7391985;19;20130;-78
2023/08/29 01:33:34;;;;;;;1.65;1.38;;;17.60;99.90;;;;;;7383901;19;20158;-78
2023/08/29 01:36:00;;;;;;;1.63;1.30;;;17.60;99.90;;;;;;7393026;19;20246;-80
2023/08/29 01:38:26;;;;;;;1.90;1.70;;;17.60;99.90;;;;;;7391129;19;20157;-77
2023/08/29 01:40:52;;;;;;;2.25;1.40;;;17.60;99.90;;;;;;7392815;19;20135;-77
2023/08/29 01:43:18;;;;;;;1.50;1.40;;;17.60;99.90;;;;;;7392463;19;20142;-78
2023/08/29 01:45:43;;;;;;;1.98;1.48;;;17.50;99.90;;;;;;7389539;19;20165;-79
2023/08/29 01:48:13;;;;;;;1.48;1.38;;;17.50;99.90;;;;;;7394011;19;20218;-79
2023/08/29 01:50:40;;;;;;;1.85;1.38;;;17.50;99.90;;;;;;7392725;19;20139;-78
2023/08/29 01:53:06;;;;;;;1.80;1.50;;;17.40;99.90;;;;;;7390182;19;20134;-78
2023/08/29 01:55:33;;;;;;;1.60;1.50;;;17.40;99.90;;;;;;7391942;19;20224;-78
2023/08/29 01:58:01;;;;;;;1.50;1.40;;;17.40;99.90;;;;;;7390745;19;20127;-78
2023/08/29 02:00:27;;;;;;;2.72;1.20;;;17.40;99.90;;;;;;7393233;19;20138;-79
2023/08/29 02:02:53;;;;;;;2.20;1.50;;;17.40;99.90;;;;;;7390343;19;20146;-80
2023/08/29 02:05:19;;;;;;;1.95;1.25;;;17.40;99.90;;;;;;7390078;19;20165;-79
2023/08/29 02:07:44;;;;;;;1.48;1.35;;;17.30;99.90;;;;;;7391454;19;20143;-78
2023/08/29 02:10:10;;;;;;;2.40;1.70;;;17.30;99.90;;;;;;7391579;19;20135;-78
2023/08/29 02:12:36;;;;;;;2.17;1.40;;;17.40;99.90;;;;;;7392953;19;20143;-79
2023/08/29 02:15:02;;;;;;;1.63;1.48;;;17.40;99.90;;;;;;7389975;19;20159;-78
2023/08/29 02:17:28;;;;;;;2.10;1.38;;;17.30;99.90;;;;;;7389844;19;20169;-76
2023/08/29 02:19:54;;;;;;;1.63;1.30;;;17.30;99.90;;;;;;7392652;19;20173;-78
2023/08/29 02:22:19;;;;;;;1.60;1.50;;;17.40;99.90;;;;;;7388701;19;20275;-78
2023/08/29 02:24:47;;;;;;;1.60;1.50;;;17.50;99.90;;;;;;7390412;19;20606;-79
2023/08/29 02:27:14;;;;;;;1.60;1.50;;;17.40;99.90;;;;;;7387759;19;20641;-77
2023/08/29 02:29:39;;;;;;;1.92;1.55;;;17.40;99.90;;;;;;7391492;19;20717;-78
2023/08/29 02:32:05;;;;;;;2.05;1.50;;;17.40;99.90;;;;;;7390721;19;20134;-79
2023/08/29 02:34:31;;;;;;;2.15;1.77;;;17.40;99.90;;;;;;7389437;19;20135;-79
2023/08/29 02:36:57;;;;;;;1.52;1.27;;;17.40;99.90;;;;;;7388371;19;20158;-78
2023/08/29 02:39:23;;;;;;;2.33;1.45;;;17.40;99.90;;;;;;7391205;19;20186;-77
2023/08/29 02:41:48;;;;;;;2.28;1.45;;;17.50;99.90;;;;;;7390182;19;20149;-78
2023/08/29 02:44:14;;;;;;;1.60;1.40;;;17.50;99.90;;;;;;7389051;19;20134;-77
2023/08/29 02:46:40;;;;;;;2.80;1.75;;;17.50;99.90;;;;;;7390633;19;20701;-78
2023/08/29 02:49:06;;;;;;;2.10;1.55;;;17.50;99.90;;;;;;7392146;19;20153;-79
2023/08/29 02:51:34;;;;;;;3.60;1.73;;;17.30;99.90;;;;;;7387857;19;20939;-79
2023/08/29 02:54:00;;;;;;;3.00;1.88;;;17.40;99.90;;;;;;7388976;19;20155;-78
2023/08/29 02:56:26;;;;;;;1.65;1.55;;;17.50;99.90;;;;;;7390223;19;20314;-79
2023/08/29 02:58:54;;;;;;;2.58;1.60;;;17.50;99.90;;;;;;7389982;19;20635;-78
2023/08/29 03:01:20;;;;;;;1.77;1.65;;;17.40;99.90;;;;;;7388595;19;20477;-78
2023/08/29 03:03:45;;;;;;;3.70;1.80;;;17.30;99.90;;;;;;7390050;19;20218;-79
2023/08/29 03:06:11;;;;;;;2.70;1.60;;;17.40;99.90;;;;;;7388161;19;20157;-79
2023/08/29 03:08:37;;;;;;;5.40;1.80;;;17.50;99.90;;;;;;7388149;19;20168;-79
2023/08/29 03:11:04;;;;;;;2.55;1.70;;;17.50;99.90;;;;;;7391054;19;20162;-77
2023/08/29 03:13:30;;;;;;;2.67;2.08;;;17.40;99.90;;;;;;7390398;19;20134;-78
2023/08/29 03:15:59;;;;;;;1.83;1.60;;;17.20;99.90;;;;;;7390860;19;20142;-78
2023/08/29 03:18:28;;;;;;;2.70;2.10;;;17.30;99.90;;;;;;7388516;19;20258;-79
2023/08/29 03:20:54;;;;;;;3.10;1.67;;;17.40;99.90;;;;;;7390101;19;20161;-79
2023/08/29 03:23:20;;;;;;;2.35;1.52;;;17.40;99.90;;;;;;7389555;19;20155;-79
2023/08/29 03:25:46;;;;;;;3.20;1.80;;;17.40;99.90;;;;;;7389395;19;20493;-78
2023/08/29 03:28:12;;;;;;;2.45;1.70;;;17.50;99.90;;;;;;7388952;19;20154;-78
2023/08/29 03:30:37;;;;;;;4.15;1.88;;;17.40;99.90;;;;;;7388604;19;20455;-79
2023/08/29 03:33:03;;;;;;;2.40;1.50;;;17.40;99.90;;;;;;7389108;19;20135;-78
2023/08/29 03:35:29;;;;;;;1.83;1.50;;;17.30;99.90;;;;;;7388898;19;20142;-77
2023/08/29 03:37:55;;;;;;;3.63;1.75;;;17.20;99.90;;;;;;7390185;19;20167;-78
2023/08/29 03:40:20;;;;;;;1.77;1.65;;;17.30;99.90;;;;;;7386575;19;20579;-78
2023/08/29 03:42:47;;;;;;;1.70;1.60;;;17.40;99.90;;;;;;7389498;19;20584;-79
2023/08/29 03:45:12;;;;;;;2.53;2.03;;;17.40;99.90;;;;;;7386280;19;20597;-80
2023/08/29 03:47:39;;;;;;;3.22;1.77;;;17.40;99.90;;;;;;7387109;19;20141;-78
2023/08/29 03:50:06;;;;;;;3.08;2.00;;;17.40;99.90;;;;;;7390607;19;20145;-79
2023/08/29 03:52:32;;;;;;;3.92;2.15;;;17.50;99.90;;;;;;7388842;19;20146;-80
2023/08/29 03:54:58;;;;;;;2.22;1.88;;;17.50;99.90;;;;;;7386543;19;20158;-79
2023/08/29 03:57:24;;;;;;;3.00;1.98;;;17.50;99.90;;;;;;7390313;19;20244;-79
2023/08/29 03:59:50;;;;;;;2.10;1.88;;;17.40;99.90;;;;;;7386894;19;20130;-79
2023/08/29 04:02:16;;;;;;;4.60;1.90;;;17.40;99.90;;;;;;7389599;19;20127;-79
2023/08/29 04:04:44;;;;;;;2.63;2.10;;;17.40;99.90;;;;;;7386015;19;20147;-79
2023/08/29 04:07:10;;;;;;;3.15;2.08;;;17.20;99.90;;;;;;7383459;19;20147;-79
2023/08/29 04:09:37;;;;;;;3.88;2.47;;;17.30;99.90;;;;;;7386661;19;20146;-79
2023/08/29 04:12:03;;;;;;;2.80;2.47;;;17.30;99.90;;;;;;7388033;19;20588;-79
2023/08/29 04:14:28;;;;;;;3.05;2.50;;;17.30;99.90;;;;;;7386805;19;20164;-79
2023/08/29 04:16:55;;;;;;;7.38;2.55;;;17.20;99.90;;;;;;7387876;19;20150;-79
2023/08/29 04:19:21;;;;;;;4.45;3.47;;;17.20;99.90;;;;;;7386714;19;20158;-80
2023/08/29 04:21:48;;;;;;;2.90;2.67;;;17.20;99.90;;;;;;7387640;19;20423;-79
2023/08/29 04:24:13;;;;;;;2.80;2.33;;;17.30;99.90;;;;;;7386427;19;20874;-78
2023/08/29 04:26:39;;;;;;;3.22;2.88;;;17.30;99.90;;;;;;7384644;19;20150;-78
2023/08/29 04:29:06;;;;;;;4.05;2.75;;;17.20;99.90;;;;;;7386392;19;20147;-78
2023/08/29 04:31:32;;;;;;;4.55;2.80;;;17.20;99.90;;;;;;7387702;19;20161;-79
2023/08/29 04:33:59;;;;;;;4.97;3.13;;;17.00;99.90;;;;;;7386066;19;20131;-79
2023/08/29 04:36:25;;;;;;;5.25;3.20;;;17.10;99.90;;;;;;7388492;19;20138;-80
2023/08/29 04:38:51;;;;;;;3.97;3.10;;;17.00;99.90;;;;;;7384418;19;20142;-80
2023/08/29 04:41:17;;;;;;;4.07;3.20;;;17.00;99.90;;;;;;7386450;19;20131;-79
2023/08/29 04:43:45;;;;;;;5.18;3.88;;;17.10;99.90;;;;;;7386790;19;20159;-79
2023/08/29 04:46:11;;;;;;;4.22;3.33;;;17.20;99.90;;;;;;7382296;19;20127;-80
2023/08/29 04:48:37;;;;;;;4.15;3.15;;;17.20;99.90;;;;;;7386760;19;20158;-80
2023/08/29 04:51:06;;;;;;;4.63;3.50;;;17.20;99.90;;;;;;7388367;19;20135;-80
2023/08/29 04:53:32;;;;;;;5.15;3.47;;;17.20;99.90;;;;;;7386679;19;20153;-79
2023/08/29 04:56:03;;;;;;;3.88;3.47;;;17.20;99.90;;;;;;7388085;19;20135;-79
2023/08/29 04:58:29;;;;;;;3.90;3.50;;;17.10;99.90;;;;;;7388217;19;20156;-79
2023/08/29 05:00:58;;;;;;;4.80;3.83;;;16.90;99.90;;;;;;7393588;19;20148;-80
2023/08/29 05:03:24;;;;;;;4.75;4.10;;;16.90;99.90;;;;;;7390890;19;20150;-79
2023/08/29 05:05:52;;;;;;;5.90;4.43;;;17.00;99.90;;;;;;7391323;19;20201;-80
2023/08/29 05:08:18;;;;;;;4.88;3.88;;;17.10;99.90;;;;;;7391816;19;20559;-78
2023/08/29 05:10:44;;;;;;;6.57;3.92;;;16.90;99.90;;;;;;7394218;19;20530;-79
2023/08/29 05:13:10;;;;;;;4.80;3.75;;;16.90;99.90;;;;;;7393474;19;20165;-79
2023/08/29 05:15:36;;;;;;;4.43;4.03;;;17.00;99.90;;;;;;7391762;19;20155;-78
2023/08/29 05:18:03;;;;;;;3.78;3.35;;;17.10;99.90;;;;;;7392758;19;20167;-80
2023/08/29 05:20:28;;;;;;;5.00;3.88;;;17.30;99.90;;;;;;7391834;19;20146;-79
2023/08/29 05:22:54;;;;;;;6.20;4.30;;;17.20;99.90;;;;;;7390656;19;20198;-79
2023/08/29 05:25:20;;;;;;;4.82;4.30;;;17.30;99.90;;;;;;7391548;19;20130;-77
2023/08/29 05:27:46;;;;;;;4.70;4.30;;;17.10;99.90;;;;;;7391202;19;20131;-79
2023/08/29 05:30:13;;;;;;;7.55;3.85;;;17.10;99.90;;;;;;7392596;19;21604;-79
2023/08/29 05:32:39;;;;;;;4.70;3.80;;;17.20;99.90;;;;;;7388654;19;20139;-79
2023/08/29 05:35:06;;;;;;;4.72;3.63;;;17.20;99.90;;;;;;7392432;19;20215;-78
2023/08/29 05:37:32;;;;;;;4.50;4.10;;;17.00;99.90;;;;;;7390552;19;20538;-80
2023/08/29 05:39:58;;;;;;;4.78;3.92;;;16.90;99.90;;;;;;7390663;19;20599;-79
2023/08/29 05:42:25;;;;;;;4.25;3.85;;;17.10;99.90;;;;;;7386469;19;20158;-80
2023/08/29 05:44:51;;;;;;;5.82;4.43;;;17.20;99.90;;;;;;7391079;19;20131;-79
2023/08/29 05:47:16;;;;;;;6.68;4.75;;;17.20;99.90;;;;;;7387954;19;20504;-79
2023/08/29 05:49:42;;;;;;;4.75;4.25;;;17.20;99.90;;;;;;7390119;19;20133;-79
2023/08/29 05:52:08;;;;;;;9.02;4.22;;;17.20;99.90;;;;;;7390359;19;20575;-78
2023/08/29 05:54:36;;;;;;;5.22;4.72;;;17.10;99.90;;;;;;7391557;19;20150;-80
2023/08/29 05:57:03;;;;;;;6.05;4.75;;;17.10;99.90;;;;;;7392252;19;20585;-78
2023/08/29 05:59:29;;;;;;;4.78;3.95;;;17.10;99.90;;;;;;7391330;19;20591;-76
2023/08/29 06:01:55;;;;;;;5.90;3.80;;;16.90;99.90;;;;;;7395494;19;20135;-81
2023/08/29 06:04:20;;;;;;;5.88;4.63;;;17.10;99.90;;;;;;7392392;19;20679;-81
2023/08/29 06:06:50;;;;;;;4.50;4.10;;;17.20;99.90;;;;;;7390897;19;20572;-79
2023/08/29 06:09:16;;;;;;;5.43;4.47;;;17.30;99.90;;;;;;7396242;19;20146;-79
2023/08/29 06:11:42;;;;;;;5.53;5.03;;;17.30;99.90;;;;;;7394852;19;20131;-78
2023/08/29 06:14:08;;;;;;;6.45;5.60;;;17.30;99.90;;;;;;7397486;19;20130;-80
2023/08/29 06:16:33;;;;;;;6.03;4.88;;;17.30;99.90;;;;;;7396763;19;20154;-82
2023/08/29 06:18:59;;;;;;;6.47;4.55;;;17.10;99.90;;;;;;7393444;19;20143;-79
2023/08/29 06:21:25;;;;;;;6.07;4.93;;;17.00;99.90;;;;;;7392222;19;20478;-80
2023/08/29 06:23:51;;;;;;;7.20;5.30;;;16.90;99.90;;;;;;7391964;19;20134;-79
2023/08/29 06:26:16;;;;;;;6.18;4.60;;;17.00;99.90;;;;;;7392529;19;20146;-80
2023/08/29 06:28:42;;;;;;;5.47;4.78;;;17.00;99.90;;;;;;7392599;19;20151;-80
2023/08/29 06:31:08;;;;;;;6.15;5.40;;;17.00;99.90;;;;;;7392330;19;20139;-80
2023/08/29 06:33:35;;;;;;;6.97;5.32;;;16.90;99.90;;;;;;7393831;19;20153;-82
2023/08/29 06:36:01;;;;;;;6.47;4.47;;;16.90;99.90;;;;;;7394303;19;20227;-80
2023/08/29 06:38:27;;;;;;;5.38;4.88;;;17.00;99.90;;;;;;7393619;19;20520;-80
2023/08/29 06:40:57;;;;;;;5.47;4.72;;;17.00;99.90;;;;;;7393027;19;20169;-79
2023/08/29 06:43:23;;;;;;;5.60;4.53;;;17.00;99.90;;;;;;7395776;19;20155;-79
2023/08/29 06:45:49;;;;;;;7.60;5.00;;;17.00;99.90;;;;;;7393792;19;20222;-80
2023/08/29 06:48:15;;;;;;;5.93;5.10;;;17.00;99.90;;;;;;7396260;19;20167;-80
2023/08/29 06:50:41;;;;;;;8.65;5.38;;;16.90;99.90;;;;;;7395474;19;20550;-78
2023/08/29 06:53:06;;;;;;;5.75;4.57;;;17.00;99.90;;;;;;7396903;19;20134;-79
2023/08/29 06:55:34;;;;;;;4.72;4.28;;;17.00;99.90;;;;;;7395407;19;20155;-80
2023/08/29 06:58:01;;;;;;;5.93;4.05;;;17.10;99.90;;;;;;7395005;19;20614;-80
2023/08/29 07:00:27;;;;;;;4.88;4.40;;;17.10;99.90;;;;;;7393182;19;20135;-80
2023/08/29 07:02:53;;;;;;;5.68;4.63;;;17.20;99.90;;;;;;7392114;19;20155;-82
2023/08/29 07:05:20;;;;;;;5.75;4.78;;;17.20;99.90;;;;;;7387232;19;20142;-82
2023/08/29 07:07:46;;;;;;;5.82;4.93;;;17.20;99.90;;;;;;7390681;19;20150;-84
2023/08/29 07:10:13;;;;;;;5.63;4.85;;;17.20;99.90;;;;;;7390359;19;20153;-82
2023/08/29 07:12:39;;;;;;;4.68;4.28;;;17.20;99.90;;;;;;7389848;19;20157;-83
2023/08/29 07:15:05;;;;;;;4.95;4.22;;;17.20;99.90;;;;;;7390521;19;20669;-83
2023/08/29 07:17:31;;;;;;;5.75;4.38;;;17.20;99.90;;;;;;7391422;19;20157;-83
2023/08/29 07:19:57;;;;;;;4.90;4.40;;;17.20;99.90;;;;;;7389744;19;20327;-81
2023/08/29 07:22:23;;;;;;;6.10;4.93;;;17.10;99.90;;;;;;7389962;19;20147;-80
2023/08/29 07:24:49;;;;;;;7.18;4.97;;;17.10;99.90;;;;;;7389500;19;20225;-83
2023/08/29 07:27:14;;;;;;;6.78;5.40;;;17.10;99.90;;;;;;7387551;19;20142;-83
2023/08/29 07:29:41;;;;;;;6.05;5.45;;;17.20;99.90;;;;;;7391389;19;20130;-82
2023/08/29 07:32:07;;;;;;;5.15;4.70;;;17.20;99.90;;;;;;7390487;19;20134;-81
2023/08/29 07:34:33;;;;;;;6.75;4.78;;;17.20;99.90;;;;;;7389340;19;20586;-83
2023/08/29 07:36:58;;;;;;;6.28;5.30;;;17.30;99.90;;;;;;7387948;19;20498;-83
2023/08/29 07:39:24;;;;;;;5.75;4.13;;;17.40;99.90;;;;;;7388878;19;20138;-82
2023/08/29 07:41:50;;;;;;;5.85;4.15;;;17.40;99.90;;;;;;7388738;19;20146;-79
2023/08/29 07:44:16;;;;;;;5.82;4.65;;;17.50;99.90;;;;;;7386781;19;20218;-81
2023/08/29 07:46:42;;;;;;;5.53;4.97;;;17.20;99.90;;;;;;7386958;19;20259;-81
2023/08/29 07:49:13;;;;;;;5.07;4.53;;;17.30;99.90;;;;;;7391028;19;20147;-81
2023/08/29 07:51:40;;;;;;;4.97;4.00;;;17.30;99.90;;;;;;7390264;19;20138;-81
2023/08/29 07:54:06;;;;;;;4.25;3.85;;;17.40;99.90;;;;;;7391117;19;20705;-83
2023/08/29 07:56:32;;;;;;;4.75;4.20;;;17.50;99.90;;;;;;7389734;19;20146;-83
2023/08/29 07:58:58;;;;;;;4.75;3.92;;;17.30;99.90;;;;;;7389343;19;20481;-81
2023/08/29 08:01:24;;;;;;;6.85;4.53;;;17.40;99.90;;;;;;7390131;19;20127;-82
2023/08/29 08:03:50;;;;;;;6.07;4.50;;;17.30;99.90;;;;;;7388170;19;20182;-81
2023/08/29 08:06:16;;;;;;;4.82;4.30;;;17.20;99.90;;;;;;7389060;19;20637;-81
2023/08/29 08:08:41;;;;;;;5.15;4.30;;;17.20;99.90;;;;;;7389462;19;20170;-82
2023/08/29 08:11:08;;;;;;;8.45;5.68;;;17.20;99.90;;;;;;7390661;19;20779;-83
2023/08/29 08:13:34;;;;;;;7.68;4.88;;;17.10;99.90;;;;;;7388301;19;20595;-82
2023/08/29 08:16:00;;;;;;;5.55;4.75;;;16.90;99.90;;;;;;7388598;19;20694;-80
2023/08/29 08:18:26;;;;;;;6.72;5.65;;;17.00;99.90;;;;;;7387385;19;20138;-82
2023/08/29 08:20:52;;;;;;;6.32;4.93;;;17.00;99.90;;;;;;7388027;19;20142;-77
2023/08/29 08:23:17;;;;;;;6.97;5.75;;;16.90;99.90;;;;;;7387191;19;20151;-76
2023/08/29 08:25:44;;;;;;;9.48;7.50;;;17.10;99.90;;;;;;7385545;19;20134;-78
2023/08/29 08:28:10;;;;;;;6.28;5.10;;;17.20;99.90;;;;;;7387161;19;20163;-77
2023/08/29 08:30:39;;;;;;;7.20;5.35;;;17.20;99.90;;;;;;7386030;19;20583;-78
2023/08/29 08:33:06;;;;;;;5.95;4.88;;;17.30;99.90;;;;;;7391393;19;20145;-78
2023/08/29 08:35:32;;;;;;;5.82;5.22;;;17.40;99.90;;;;;;7392429;19;20165;-77
2023/08/29 08:37:58;;;;;;;5.50;5.00;;;17.30;99.90;;;;;;7394428;19;20207;-77
2023/08/29 08:40:24;;;;;;;7.45;5.03;;;17.30;99.90;;;;;;7393397;19;20135;-77
2023/08/29 08:42:50;;;;;;;6.93;5.22;;;17.20;99.90;;;;;;7395550;19;20619;-75
2023/08/29 08:45:22;;;;;;;6.72;5.57;;;17.20;99.90;;;;;;7395010;19;20143;-76
2023/08/29 08:47:48;;;;;;;9.02;6.07;;;17.20;99.90;;;;;;7394516;19;20135;-78
2023/08/29 08:50:14;;;;;;;6.55;5.57;;;17.20;99.90;;;;;;7396093;19;20741;-78
2023/08/29 08:52:43;;;;;;;8.38;7.03;;;17.10;99.90;;;;;;7392054;19;20221;-78
2023/08/29 08:55:09;;;;;;;7.82;6.00;;;17.10;99.90;;;;;;7392764;19;20162;-78
2023/08/29 08:57:36;;;;;;;7.03;5.78;;;17.00;99.90;;;;;;7395162;19;20126;-80
2023/08/29 09:00:02;;;;;;;9.43;6.75;;;16.90;99.90;;;;;;7394141;19;20135;-79
2023/08/29 09:02:29;;;;;;;7.18;6.47;;;17.00;99.90;;;;;;7394453;19;20154;-78
2023/08/29 09:04:57;;;;;;;6.45;5.55;;;17.10;99.90;;;;;;7394067;19;20164;-77
2023/08/29 09:07:22;;;;;;;6.22;5.30;;;17.00;99.90;;;;;;7390561;19;20463;-77
2023/08/29 09:10:09;;;;;;;7.78;5.95;;;17.30;99.90;;;;;;7391948;19;20153;-78
2023/08/29 09:12:35;;;;;;;8.27;5.38;;;17.30;99.90;;;;;;7393637;19;20595;-78
2023/08/29 09:15:05;;;;;;;5.32;4.82;;;17.20;99.90;;;;;;7393262;19;20142;-78
2023/08/29 09:17:31;;;;;;;6.05;5.45;;;17.20;99.90;;;;;;7391798;19;20142;-77
2023/08/29 09:20:00;;;;;;;6.72;6.13;;;17.10;99.90;;;;;;7393120;19;20134;-77
2023/08/29 09:22:27;;;;;;;6.10;5.50;;;17.10;99.90;;;;;;7392495;19;20135;-78
2023/08/29 09:25:02;;;;;;;6.20;5.13;;;17.00;99.90;;;;;;7393545;19;20173;-79
2023/08/29 09:27:29;;;;;;;7.05;6.32;;;17.00;99.90;;;;;;7390844;19;20143;-78
2023/08/29 09:30:07;;;;;;;7.07;6.35;;;17.00;99.90;;;;;;7391942;19;20135;-77
2023/08/29 09:32:33;;;;;;;7.70;5.80;;;17.10;99.90;;;;;;7391469;19;20145;-79
2023/08/29 09:34:59;;;;;;;5.63;5.13;;;17.10;99.90;;;;;;7392800;19;20142;-78
2023/08/29 09:37:24;;;;;;;7.20;6.00;;;17.10;99.90;;;;;;7394017;19;20595;-77
2023/08/29 09:39:53;;;;;;;6.10;5.30;;;17.10;99.90;;;;;;7392817;19;20154;-78
2023/08/29 09:42:21;;;;;;;6.38;5.72;;;17.10;99.90;;;;;;7393133;19;20146;-78
2023/08/29 09:44:49;;;;;;;6.85;6.15;;;16.90;99.90;;;;;;7391272;19;20257;-79
2023/08/29 09:47:25;;;;;;;6.85;5.93;;;16.90;99.90;;;;;;7390162;19;20150;-78
2023/08/29 09:49:51;;;;;;;7.85;5.95;;;17.00;99.90;;;;;;7391609;19;20142;-78
2023/08/29 09:52:20;;;;;;;8.00;6.45;;;17.10;99.90;;;;;;7392153;19;20151;-79
2023/08/29 09:54:51;;;;;;;7.75;6.50;;;17.20;99.90;;;;;;7392351;19;20138;-79
2023/08/29 09:57:19;;;;;;;7.47;6.78;;;17.30;99.90;;;;;;7391373;19;20138;-78
2023/08/29 09:59:46;;;;;;;6.57;5.97;;;17.10;99.90;;;;;;7391769;19;20138;-78
2023/08/29 10:02:14;;;;;;;9.00;7.72;;;17.20;99.90;;;;;;7390423;19;20567;-79
2023/08/29 10:05:03;;;;;;;7.40;6.55;;;17.10;99.90;;;;;;7387036;19;20162;-78
2023/08/29 10:07:37;;;;;;;8.43;6.60;;;17.30;99.90;;;;;;7389016;19;20190;-80
2023/08/29 10:10:06;;;;;;;6.80;6.10;;;17.20;99.90;;;;;;7391031;19;20167;-78
2023/08/29 10:12:32;;;;;;;6.70;6.10;;;17.30;99.90;;;;;;7390934;19;20139;-79
2023/08/29 10:15:00;;;;;;;7.65;6.45;;;17.30;99.90;;;;;;7391204;19;20467;-79
2023/08/29 10:17:27;;;;;;;6.90;6.10;;;17.20;99.90;;;;;;7390321;19;20222;-80
2023/08/29 10:19:54;;;;;;;7.25;6.03;;;17.30;99.90;;;;;;7391685;19;20146;-79
2023/08/29 10:22:21;;;;;;;7.15;6.43;;;17.50;99.90;;;;;;7391631;19;20176;-79
2023/08/29 10:24:50;;;;;;;7.43;6.47;;;17.50;99.90;;;;;;7390530;19;20487;-80
2023/08/29 10:27:16;;;;;;;7.20;5.32;;;17.30;99.90;;;;;;7390502;19;20591;-79
2023/08/29 10:29:42;;;;;;;6.30;5.78;;;17.50;99.90;;;;;;7390210;19;20222;-80
2023/08/29 10:32:07;;;;;;;7.55;6.47;;;17.60;99.90;;;;;;7391028;19;20142;-78
2023/08/29 10:34:34;;;;;;;6.20;5.38;;;17.80;99.90;;;;;;7389703;19;20126;-79
2023/08/29 10:37:01;;;;;;;6.30;5.70;;;17.70;99.90;;;;;;7389773;19;20142;-78
2023/08/29 10:39:27;;;;;;;6.28;5.60;;;17.90;99.90;;;;;;7390269;19;20134;-78
2023/08/29 10:41:54;;;;;;;5.68;5.18;;;17.80;99.90;;;;;;7389961;19;20167;-77
2023/08/29 10:44:32;;;;;;;6.15;5.57;;;17.70;99.90;;;;;;7387854;19;20194;-78
2023/08/29 10:47:15;;;;;;;9.23;6.95;;;17.90;99.90;;;;;;7388903;19;20162;-77
2023/08/29 10:49:43;;;;;;;8.40;6.28;;;18.10;99.90;;;;;;7391020;19;20142;-78
2023/08/29 10:52:10;;;;;;;6.22;5.72;;;18.10;99.90;;;;;;7391227;19;20151;-78
2023/08/29 10:54:36;;;;;;;5.78;4.90;;;18.20;99.90;;;;;;7389144;19;20495;-78
2023/08/29 10:57:21;;;;;;;5.80;5.30;;;18.10;99.90;;;;;;7388536;19;20157;-77
2023/08/29 10:59:47;;;;;;;5.80;5.20;;;18.10;99.90;;;;;;7388451;19;20142;-79
2023/08/29 11:02:27;;;;;;;7.80;6.00;;;18.00;99.90;;;;;;7391260;19;20597;-78
2023/08/29 11:05:04;;;;;;;6.05;4.93;;;17.90;99.90;;;;;;7387461;19;20146;-78
2023/08/29 11:07:32;;;;;;;7.28;6.10;;;17.90;99.90;;;;;;7388164;19;20134;-77
2023/08/29 11:10:30;;;;;;;6.50;5.90;;;17.90;99.90;;;;;;7388027;19;20158;-77
2023/08/29 11:13:12;;;;;;;6.53;5.93;;;17.80;99.90;;;;;;7388173;19;20143;-77
2023/08/29 11:15:50;;;;;;;6.15;5.53;;;17.80;99.90;;;;;;7388752;19;20139;-78
2023/08/29 11:18:21;;;;;;;6.43;5.82;;;17.70;99.90;;;;;;7389514;19;20814;-78
2023/08/29 11:20:48;;;;;;;7.13;6.43;;;17.70;99.90;;;;;;7389728;19;20164;-78
2023/08/29 11:23:14;;;;;;;7.63;6.88;;;17.80;99.90;;;;;;7390067;19;20146;-78
2023/08/29 11:25:40;;;;;;;7.07;6.38;;;17.80;99.90;;;;;;7390067;19;20456;-78
2023/08/29 11:28:06;;;;;;;8.50;7.00;;;18.00;99.90;;;;;;7390968;19;20174;-77
2023/08/29 11:30:33;;;;;;;7.40;6.50;;;18.10;99.90;;;;;;7388398;19;20142;-77
2023/08/29 11:32:59;;;;;;;8.20;7.18;;;18.20;99.90;;;;;;7389614;19;20183;-77
2023/08/29 11:35:28;;;;;;;6.97;6.38;;;18.30;99.90;;;;;;7386538;19;20202;-77
2023/08/29 11:37:54;;;;;;;6.60;6.00;;;18.30;99.90;;;;;;7389828;19;20607;-79
2023/08/29 11:40:21;;;;;;;6.65;6.00;;;18.40;99.90;;;;;;7389267;19;20147;-77
2023/08/29 11:42:46;;;;;;;7.35;6.30;;;18.30;99.90;;;;;;7391130;19;20161;-77
2023/08/29 11:45:14;;;;;;;7.65;6.95;;;18.30;99.90;;;;;;7388962;19;20510;-78
2023/08/29 11:47:43;;;;;;;6.28;5.68;;;18.40;99.90;;;;;;7388518;19;20455;-77
2023/08/29 11:50:11;;;;;;;7.75;6.93;;;18.40;99.90;;;;;;7390679;19;20153;-77
2023/08/29 11:52:37;;;;;;;7.70;7.00;;;18.30;99.90;;;;;;7389002;19;20146;-77
2023/08/29 11:55:07;;;;;;;6.80;6.20;;;18.20;99.90;;;;;;7388613;19;20508;-77
2023/08/29 11:57:33;;;;;;;6.22;5.63;;;18.10;99.90;;;;;;7387722;19;20142;-78
2023/08/29 11:59:59;;;;;;;7.93;5.90;;;18.10;99.90;;;;;;7388632;19;20158;-77
2023/08/29 12:02:26;;;;;;;6.80;6.20;;;18.20;99.90;;;;;;7388952;19;20136;-78
2023/08/29 12:04:56;;;;;;;7.85;6.07;;;18.10;99.90;;;;;;7384877;19;20591;-78
2023/08/29 12:07:23;;;;;;;7.35;6.53;;;18.00;99.90;;;;;;7383880;19;20273;-78
2023/08/29 12:09:52;;;;;;;7.47;6.78;;;18.00;99.90;;;;;;7387805;19;20170;-78
2023/08/29 12:12:32;;;;;;;11.43;7.90;;;17.90;99.90;;;;;;7389923;19;20139;-78
2023/08/29 12:14:58;;;;;;;8.60;7.63;;;18.00;99.90;;;;;;7388391;19;20152;-80
2023/08/29 12:17:38;;;;;;;10.43;8.35;;;17.80;99.90;;;;;;7389988;19;20847;-80
2023/08/29 12:20:13;;;;;;;7.47;6.78;;;17.70;99.90;;;;;;7388648;19;20130;-80
2023/08/29 12:22:52;;;;;;;7.97;7.07;;;17.50;99.90;;;;;;7388890;19;20163;-80
2023/08/29 12:25:19;;;;;;;7.18;6.47;;;17.50;99.90;;;;;;7388289;19;20137;-80
2023/08/29 12:27:46;;;;;;;6.30;5.70;;;17.50;99.90;;;;;;7392472;19;20183;-80
2023/08/29 12:30:14;;;;;;;7.65;5.40;;;17.60;99.90;;;;;;7387830;19;20591;-79
2023/08/29 12:32:42;;;;;;;7.43;6.00;;;17.60;99.90;;;;;;7388592;19;20414;-80
2023/08/29 12:35:09;;;;;;;7.43;6.47;;;17.60;99.90;;;;;;7386321;19;20138;-80
2023/08/29 12:37:34;;;;;;;7.63;6.82;;;17.60;99.90;;;;;;7386673;19;20145;-82
2023/08/29 12:40:04;;;;;;;7.30;6.60;;;17.60;99.90;;;;;;7387943;19;20203;-81
2023/08/29 12:42:30;;;;;;;7.18;6.47;;;17.70;99.90;;;;;;7388934;19;20135;-81
2023/08/29 12:44:59;;;;;;;7.80;7.10;;;17.70;99.90;;;;;;7387150;19;20147;-80
2023/08/29 12:47:25;;;;;;;7.80;6.82;;;17.70;99.90;;;;;;7383206;19;20151;-81
2023/08/29 12:49:51;;;;;;;7.25;6.57;;;17.70;99.90;;;;;;7387518;19;20165;-80